Terminal Aerodrome Forecast
Issued by NWS

Home | Current Version | Previous Version | Text Only | Print | Product List | Glossary On
Versions: 1 2 3 4 5 6 7 8 9 10 11 12 13
000
FTUS45 KMSO 240528
TAFSMN
TAF
KSMN 240528Z 2406/2506 16006KT P6SM VCSH BKN050 OVC070
     FM241300 VRB03KT P6SM -SHRA OVC035
     FM241500 00000KT P6SM OVC040
     FM241900 02005KT P6SM -SHRA SCT025 BKN050
      AMD LTD TO CLD VIS AND WIND=

USA.gov is the U.S. government's official web portal to all federal, state and local government web resources and services.